Time;durP1;ratioP1;P1;durP2;ratioP2;P2;SDS_P1;SDS_P2;PMS_P1;PMS_P2;Temp;Humidity;BMP_temperature;BMP_pressure;BME280_temperature;BME280_humidity;BME280_pressure;Samples;Min_cycle;Max_cycle;Signal;HPM_P1;HPM_P2
2021/12/01 00:00:20;;;;;;;0.60;0.60;;;7.40;54.60;;;;;;20982;6702;274385;-89
2021/12/01 00:02:45;;;;;;;0.83;0.43;;;7.60;54.30;;;;;;21244;6687;67199;-88
2021/12/01 00:05:11;;;;;;;0.70;0.60;;;7.50;54.40;;;;;;20979;6702;303202;-89
2021/12/01 00:07:36;;;;;;;0.87;0.73;;;7.50;54.60;;;;;;21257;6687;67083;-89
2021/12/01 00:10:05;;;;;;;0.73;0.73;;;7.40;54.70;;;;;;21037;6702;282855;-93
2021/12/01 00:12:30;;;;;;;0.70;0.70;;;7.40;54.90;;;;;;20994;6697;274225;-90
2021/12/01 00:14:56;;;;;;;0.75;0.75;;;7.60;54.60;;;;;;20991;6702;304396;-88
2021/12/01 00:17:22;;;;;;;0.60;0.60;;;7.80;54.30;;;;;;20985;6702;275695;-89
2021/12/01 00:19:47;;;;;;;0.70;0.70;;;7.90;54.00;;;;;;20983;6702;308647;-89
2021/12/01 00:22:13;;;;;;;0.50;0.50;;;8.00;53.70;;;;;;21234;6690;67035;-89
2021/12/01 00:24:38;;;;;;;0.85;0.55;;;7.80;53.90;;;;;;20982;6702;308078;-88
2021/12/01 00:27:04;;;;;;;0.83;0.83;;;7.70;54.00;;;;;;21197;6702;66751;-89
2021/12/01 00:29:29;;;;;;;0.57;0.57;;;7.50;54.30;;;;;;21019;6689;318148;-88
2021/12/01 00:31:56;;;;;;;0.60;0.60;;;7.60;54.50;;;;;;21032;6687;273848;-91
2021/12/01 00:34:21;;;;;;;0.60;0.60;;;7.70;54.60;;;;;;21023;6687;331509;-88
2021/12/01 00:36:48;;;;;;;1.30;0.80;;;7.90;54.70;;;;;;21022;6687;332220;-88
2021/12/01 00:39:13;;;;;;;0.53;0.53;;;7.90;54.00;;;;;;21001;6687;277116;-92
2021/12/01 00:41:39;;;;;;;0.60;0.60;;;7.80;54.70;;;;;;21232;6687;66593;-89
2021/12/01 00:44:07;;;;;;;0.60;0.60;;;7.80;54.10;;;;;;21274;6687;69443;-90
2021/12/01 00:46:41;;;;;;;0.50;0.50;;;7.40;55.20;;;;;;21070;6687;306354;-91
2021/12/01 00:49:03;;;;;;;0.50;0.50;;;7.40;55.10;;;;;;21252;6687;67493;-87
2021/12/01 00:51:29;;;;;;;0.53;0.53;;;7.20;55.20;;;;;;21256;6685;66616;-87
2021/12/01 00:53:54;;;;;;;0.62;0.62;;;7.00;55.80;;;;;;21055;6687;303493;-88
2021/12/01 00:56:20;;;;;;;0.50;0.50;;;7.10;56.10;;;;;;21272;6687;66792;-88
2021/12/01 00:58:45;;;;;;;0.70;0.70;;;7.00;56.00;;;;;;21100;6687;285381;-87
2021/12/01 01:01:11;;;;;;;0.90;0.70;;;7.10;55.70;;;;;;21352;6687;66605;-89
2021/12/01 01:03:37;;;;;;;0.53;0.53;;;7.10;55.60;;;;;;21101;6687;303077;-88
2021/12/01 01:06:02;;;;;;;0.62;0.50;;;7.20;55.50;;;;;;21104;6687;276021;-93
2021/12/01 01:08:28;;;;;;;0.67;0.67;;;7.50;54.90;;;;;;21028;6687;294512;-90
2021/12/01 01:16:22;;;;;;;0.80;0.60;;;7.60;54.60;;;;;;21026;6687;276076;-91
2021/12/01 01:18:35;;;;;;;1.35;0.50;;;7.70;54.00;;;;;;20990;6687;304278;-88
2021/12/01 01:21:01;;;;;;;0.30;0.30;;;7.90;53.70;;;;;;21245;6687;66905;-88
2021/12/01 01:23:29;;;;;;;0.53;0.47;;;7.70;53.90;;;;;;21039;6687;303126;-88
2021/12/01 01:25:52;;;;;;;0.53;0.40;;;7.70;54.10;;;;;;21071;6687;273017;-92
2021/12/01 01:28:18;;;;;;;0.40;0.40;;;7.80;53.90;;;;;;21046;6687;299685;-91
2021/12/01 01:30:43;;;;;;;0.30;0.30;;;8.00;53.60;;;;;;21252;6687;71843;-90
2021/12/01 01:33:09;;;;;;;0.37;0.37;;;7.80;53.80;;;;;;21275;6687;67202;-88
2021/12/01 01:35:34;;;;;;;0.50;0.50;;;7.50;54.40;;;;;;21325;6687;67583;-91
2021/12/01 01:38:00;;;;;;;0.35;0.35;;;7.20;55.10;;;;;;21061;6687;316596;-91
2021/12/01 01:40:26;;;;;;;0.80;0.80;;;7.30;55.10;;;;;;21250;6687;67348;-88
2021/12/01 01:42:51;;;;;;;0.40;0.40;;;7.20;55.00;;;;;;21252;6687;66939;-88
2021/12/01 01:45:17;;;;;;;0.40;0.40;;;7.10;55.50;;;;;;21252;6687;66555;-89
2021/12/01 01:47:53;;;;;;;0.60;0.60;;;6.90;55.80;;;;;;21250;6687;67485;-88
2021/12/01 01:50:28;;;;;;;0.43;0.43;;;6.80;56.30;;;;;;21236;6687;72489;-93
2021/12/01 01:52:43;;;;;;;0.50;0.50;;;6.70;56.60;;;;;;21216;6687;66978;-91
2021/12/01 01:55:09;;;;;;;0.63;0.63;;;6.60;56.80;;;;;;21244;6687;66944;-88
2021/12/01 01:57:34;;;;;;;0.50;0.50;;;6.50;57.10;;;;;;21272;6687;66533;-94
2021/12/01 02:00:00;;;;;;;0.30;0.30;;;6.40;57.20;;;;;;21083;6687;301791;-91
2021/12/01 02:02:25;;;;;;;0.30;0.30;;;6.70;57.20;;;;;;21030;6686;331947;-90
2021/12/01 02:04:51;;;;;;;0.40;0.40;;;7.10;56.50;;;;;;21245;6687;67143;-88
2021/12/01 02:07:16;;;;;;;0.30;0.30;;;7.10;56.00;;;;;;21046;6687;305458;-88
2021/12/01 02:09:42;;;;;;;0.40;0.40;;;7.30;55.70;;;;;;21072;6687;303097;-89
2021/12/01 02:12:08;;;;;;;0.40;0.40;;;7.50;55.10;;;;;;21287;6687;66531;-94
2021/12/01 02:14:33;;;;;;;0.60;0.60;;;7.50;55.00;;;;;;21284;6687;67478;-89
2021/12/01 02:16:59;;;;;;;0.50;0.40;;;7.30;55.40;;;;;;21018;6687;331977;-89
2021/12/01 02:19:25;;;;;;;0.30;0.30;;;7.30;55.40;;;;;;21055;6687;291614;-87
2021/12/01 02:21:51;;;;;;;0.60;0.60;;;7.60;54.80;;;;;;21327;6687;66569;-92
2021/12/01 02:24:16;;;;;;;0.52;0.40;;;7.50;54.70;;;;;;21336;6687;66848;-93
2021/12/01 02:26:42;;;;;;;0.50;0.50;;;7.30;55.10;;;;;;21250;6687;67044;-88
2021/12/01 02:29:07;;;;;;;0.45;0.45;;;7.10;55.70;;;;;;21015;6687;274855;-88
2021/12/01 02:31:36;;;;;;;0.82;0.82;;;7.20;55.70;;;;;;21238;6687;67040;-88
2021/12/01 02:34:08;;;;;;;0.40;0.30;;;7.20;55.70;;;;;;21035;6687;273492;-89
2021/12/01 02:36:34;;;;;;;0.37;0.37;;;7.30;55.50;;;;;;21232;6687;71387;-88
2021/12/01 02:38:59;;;;;;;0.43;0.43;;;7.30;55.50;;;;;;21253;6687;66645;-90
2021/12/01 02:41:25;;;;;;;0.40;0.40;;;7.00;56.40;;;;;;21265;6687;67186;-92
2021/12/01 02:43:51;;;;;;;0.40;0.40;;;6.90;56.20;;;;;;21278;6687;66645;-88
2021/12/01 02:46:16;;;;;;;0.60;0.30;;;6.80;56.70;;;;;;21238;6687;71212;-88
2021/12/01 02:48:44;;;;;;;0.30;0.30;;;6.60;57.30;;;;;;21245;6687;67049;-89
2021/12/01 02:51:09;;;;;;;0.30;0.30;;;6.60;57.20;;;;;;21231;6687;67126;-91
2021/12/01 02:53:34;;;;;;;1.30;0.40;;;6.60;57.50;;;;;;21177;6687;66909;-89
2021/12/01 02:55:59;;;;;;;0.40;0.40;;;6.50;57.60;;;;;;21030;6687;283931;-90
2021/12/01 02:58:25;;;;;;;0.30;0.30;;;6.70;57.10;;;;;;21016;6687;278296;-90
2021/12/01 03:00:50;;;;;;;0.40;0.40;;;7.10;56.10;;;;;;21032;6687;302771;-89
2021/12/01 03:03:16;;;;;;;0.30;0.30;;;7.50;55.00;;;;;;21305;6687;68846;-90
2021/12/01 03:05:42;;;;;;;0.20;0.20;;;7.50;54.90;;;;;;21017;6687;331082;-90
2021/12/01 03:08:07;;;;;;;0.30;0.30;;;7.60;54.60;;;;;;21007;6687;273877;-88
2021/12/01 03:10:33;;;;;;;0.33;0.33;;;7.80;53.90;;;;;;21238;6687;66991;-88
2021/12/01 03:12:58;;;;;;;0.30;0.30;;;7.70;53.90;;;;;;21016;6686;331401;-91
2021/12/01 03:15:24;;;;;;;0.30;0.30;;;7.80;53.80;;;;;;21237;6686;88676;-89
2021/12/01 03:17:50;;;;;;;0.30;0.30;;;7.70;53.90;;;;;;21050;6687;287170;-88
2021/12/01 03:20:15;;;;;;;0.30;0.30;;;7.80;53.80;;;;;;21100;6687;330634;-93
2021/12/01 03:22:41;;;;;;;0.93;0.30;;;8.00;53.30;;;;;;21087;6687;278025;-94
2021/12/01 03:25:09;;;;;;;0.30;0.30;;;8.20;52.80;;;;;;21261;6687;67999;-89
2021/12/01 03:27:36;;;;;;;0.77;0.20;;;8.10;53.10;;;;;;21233;6687;67319;-88
2021/12/01 03:30:00;;;;;;;0.40;0.40;;;7.80;53.70;;;;;;21233;6687;71559;-88
2021/12/01 03:32:26;;;;;;;0.30;0.30;;;7.50;54.30;;;;;;21022;6687;332256;-88
2021/12/01 03:34:52;;;;;;;0.32;0.32;;;7.60;54.30;;;;;;21260;6687;73632;-90
2021/12/01 03:37:17;;;;;;;0.30;0.30;;;7.60;54.40;;;;;;21068;6687;325387;-91
2021/12/01 03:39:43;;;;;;;0.23;0.23;;;7.70;54.20;;;;;;21266;6687;67436;-93
2021/12/01 03:42:08;;;;;;;0.30;0.30;;;7.60;54.20;;;;;;21232;6687;66566;-89
2021/12/01 03:44:34;;;;;;;0.40;0.40;;;7.40;54.70;;;;;;21238;6687;66992;-92
2021/12/01 03:46:59;;;;;;;0.20;0.20;;;7.20;55.10;;;;;;21023;6687;275090;-91
2021/12/01 03:49:25;;;;;;;0.37;0.37;;;7.40;55.10;;;;;;20970;6687;303389;-88
2021/12/01 03:51:51;;;;;;;0.33;0.33;;;7.70;54.50;;;;;;21241;6687;67778;-89
2021/12/01 03:54:16;;;;;;;0.40;0.40;;;7.70;54.40;;;;;;21239;6687;66552;-89
2021/12/01 03:56:42;;;;;;;0.40;0.40;;;7.50;54.70;;;;;;21029;6687;335103;-88
2021/12/01 03:59:07;;;;;;;0.40;0.40;;;7.60;54.60;;;;;;21292;6687;73279;-93
2021/12/01 04:01:33;;;;;;;0.30;0.30;;;7.60;54.60;;;;;;21310;6687;66522;-92
2021/12/01 04:03:59;;;;;;;0.40;0.40;;;7.50;55.00;;;;;;21065;6687;334183;-93
2021/12/01 04:06:28;;;;;;;0.30;0.30;;;7.50;55.00;;;;;;21235;6687;78075;-88
2021/12/01 04:08:53;;;;;;;0.83;0.20;;;7.50;54.90;;;;;;21024;6687;273092;-91
2021/12/01 04:11:19;;;;;;;0.30;0.30;;;7.70;54.70;;;;;;21011;6687;306827;-88
2021/12/01 04:13:44;;;;;;;0.40;0.37;;;7.90;54.00;;;;;;21021;6687;303087;-88
2021/12/01 04:16:10;;;;;;;0.82;0.28;;;8.20;53.40;;;;;;21019;6687;332250;-92
2021/12/01 04:18:37;;;;;;;0.30;0.30;;;8.30;53.10;;;;;;21236;6687;66645;-91
2021/12/01 04:21:02;;;;;;;0.33;0.33;;;8.20;53.00;;;;;;21234;6687;71627;-90
2021/12/01 04:23:30;;;;;;;0.33;0.33;;;7.90;54.50;;;;;;21011;6687;302403;-89
2021/12/01 04:25:54;;;;;;;0.33;0.33;;;7.90;53.80;;;;;;21023;6685;273905;-92
2021/12/01 04:28:19;;;;;;;0.33;0.33;;;8.20;53.30;;;;;;21272;6687;67020;-89
2021/12/01 04:30:45;;;;;;;0.40;0.40;;;8.10;53.40;;;;;;21338;6687;66869;-93
2021/12/01 04:33:10;;;;;;;0.28;0.20;;;7.80;53.90;;;;;;21316;6687;67150;-92
2021/12/01 04:35:36;;;;;;;0.30;0.30;;;7.60;54.50;;;;;;21026;6687;328401;-91
2021/12/01 04:38:03;;;;;;;0.40;0.40;;;8.00;53.80;;;;;;21040;6687;274605;-93
2021/12/01 04:40:28;;;;;;;0.47;0.40;;;8.00;53.70;;;;;;21033;6687;308823;-89
2021/12/01 04:42:54;;;;;;;0.88;0.37;;;8.30;53.20;;;;;;21001;6687;273407;-89
2021/12/01 04:45:19;;;;;;;1.07;0.33;;;8.50;52.70;;;;;;20991;6687;332251;-89
2021/12/01 04:47:45;;;;;;;0.40;0.40;;;8.70;52.20;;;;;;21028;6687;274190;-89
2021/12/01 04:50:10;;;;;;;0.40;0.40;;;8.80;51.80;;;;;;21026;6687;304008;-89
2021/12/01 04:52:36;;;;;;;0.30;0.30;;;8.70;52.00;;;;;;21255;6687;67492;-88
2021/12/01 04:55:02;;;;;;;0.43;0.43;;;8.60;51.90;;;;;;21322;6687;66569;-92
2021/12/01 04:57:28;;;;;;;0.50;0.50;;;8.00;53.30;;;;;;21252;6687;70470;-90
2021/12/01 04:59:54;;;;;;;0.50;0.40;;;8.00;53.30;;;;;;21027;6687;303523;-91
2021/12/01 05:02:19;;;;;;;0.37;0.30;;;8.00;53.50;;;;;;21030;6687;304087;-90
2021/12/01 05:04:45;;;;;;;0.47;0.47;;;8.30;53.30;;;;;;21286;6687;66970;-89
2021/12/01 05:07:11;;;;;;;0.83;0.57;;;8.20;53.30;;;;;;21300;6687;66678;-91
2021/12/01 05:09:36;;;;;;;0.70;0.50;;;7.90;53.80;;;;;;21027;6687;274364;-90
2021/12/01 05:12:02;;;;;;;0.90;0.30;;;8.00;54.00;;;;;;21249;6687;71598;-90
2021/12/01 05:14:28;;;;;;;0.30;0.30;;;8.00;54.10;;;;;;21248;6687;66828;-92
2021/12/01 05:16:53;;;;;;;0.63;0.40;;;7.80;54.60;;;;;;21078;6687;335792;-88
2021/12/01 05:19:18;;;;;;;0.80;0.50;;;7.90;54.70;;;;;;21033;6687;302237;-91
2021/12/01 05:21:44;;;;;;;0.40;0.40;;;8.20;54.40;;;;;;21245;6687;67033;-89
2021/12/01 05:24:09;;;;;;;0.40;0.40;;;8.10;54.20;;;;;;21281;6687;66990;-89
2021/12/01 05:26:36;;;;;;;0.47;0.37;;;8.00;54.90;;;;;;21028;6687;303967;-87
2021/12/01 05:29:01;;;;;;;0.53;0.40;;;8.00;54.80;;;;;;21027;6687;302255;-93
2021/12/01 05:31:27;;;;;;;0.97;0.37;;;8.30;54.40;;;;;;21248;6687;66757;-90
2021/12/01 05:33:52;;;;;;;0.33;0.33;;;8.30;54.30;;;;;;21246;6687;67429;-87
2021/12/01 05:36:18;;;;;;;0.25;0.25;;;8.00;54.70;;;;;;21038;6685;313797;-88
2021/12/01 05:38:45;;;;;;;0.40;0.40;;;8.10;54.80;;;;;;21310;6686;66568;-88
2021/12/01 05:41:10;;;;;;;0.27;0.20;;;8.10;54.70;;;;;;21350;6687;66949;-92
2021/12/01 05:43:35;;;;;;;0.30;0.30;;;7.90;55.70;;;;;;21102;6687;305996;-92
2021/12/01 05:46:02;;;;;;;0.40;0.40;;;8.00;55.00;;;;;;21249;6687;67334;-92
2021/12/01 05:48:27;;;;;;;0.30;0.30;;;8.00;55.00;;;;;;21249;6687;67114;-87
2021/12/01 05:50:53;;;;;;;0.60;0.23;;;7.90;55.30;;;;;;21032;6687;273536;-89
2021/12/01 05:53:18;;;;;;;0.70;0.40;;;8.00;55.30;;;;;;21024;6687;303431;-90
2021/12/01 05:55:44;;;;;;;0.70;0.63;;;8.30;54.50;;;;;;21246;6687;66945;-88
2021/12/01 05:58:10;;;;;;;0.80;0.40;;;8.10;54.80;;;;;;21244;6687;67535;-87
2021/12/01 06:00:36;;;;;;;0.93;0.43;;;8.10;54.80;;;;;;21240;6687;88738;-86
2021/12/01 06:03:01;;;;;;;0.52;0.52;;;7.90;55.20;;;;;;21018;6687;303928;-88
2021/12/01 06:05:27;;;;;;;0.75;0.75;;;8.10;55.00;;;;;;21243;6687;70909;-88
2021/12/01 06:07:52;;;;;;;0.80;0.80;;;8.10;54.80;;;;;;21256;6687;66632;-90
2021/12/01 06:10:18;;;;;;;0.60;0.60;;;8.00;55.20;;;;;;21333;6687;67042;-87
2021/12/01 06:12:44;;;;;;;0.70;0.70;;;7.80;55.50;;;;;;21256;6687;69817;-90
2021/12/01 06:15:09;;;;;;;0.50;0.50;;;7.70;55.80;;;;;;21025;6687;302688;-89
2021/12/01 06:17:35;;;;;;;0.40;0.40;;;7.90;55.40;;;;;;21242;6687;71893;-89
2021/12/01 06:20:00;;;;;;;0.60;0.40;;;8.00;55.20;;;;;;21244;6687;66535;-90
2021/12/01 06:22:26;;;;;;;0.40;0.40;;;7.90;55.40;;;;;;21040;6687;308149;-92
2021/12/01 06:24:51;;;;;;;1.05;0.65;;;8.00;55.00;;;;;;21263;6687;66864;-89
2021/12/01 06:27:17;;;;;;;0.60;0.47;;;8.10;55.00;;;;;;21259;6687;71302;-89
2021/12/01 06:29:42;;;;;;;0.40;0.40;;;8.00;55.20;;;;;;21282;6687;67075;-92
2021/12/01 06:32:08;;;;;;;0.40;0.40;;;7.80;55.50;;;;;;21292;6687;66954;-93
2021/12/01 06:34:34;;;;;;;3.72;3.42;;;7.70;55.80;;;;;;21264;6687;66707;-91
2021/12/01 06:37:00;;;;;;;0.50;0.50;;;7.60;56.30;;;;;;21253;6687;71484;-91
2021/12/01 06:39:26;;;;;;;8.83;8.13;;;7.60;56.30;;;;;;21258;6687;66590;-88
2021/12/01 06:41:54;;;;;;;1.10;1.10;;;7.50;56.30;;;;;;21032;6687;273474;-89
2021/12/01 06:44:17;;;;;;;1.37;0.40;;;7.80;55.80;;;;;;21249;6687;67120;-90
2021/12/01 06:46:42;;;;;;;0.30;0.30;;;7.90;55.60;;;;;;21236;6687;68596;-90
2021/12/01 06:49:08;;;;;;;0.80;0.70;;;7.80;55.70;;;;;;21290;6685;71019;-89
2021/12/01 06:51:33;;;;;;;0.40;0.40;;;7.70;55.80;;;;;;21352;6687;66783;-90
2021/12/01 06:53:59;;;;;;;0.30;0.30;;;7.70;56.20;;;;;;21311;6687;66719;-91
2021/12/01 06:56:24;;;;;;;2.50;1.03;;;7.60;56.30;;;;;;21255;6687;67567;-88
2021/12/01 06:58:50;;;;;;;0.50;0.50;;;7.50;56.40;;;;;;21029;6687;304630;-86
2021/12/01 07:01:16;;;;;;;0.87;0.40;;;7.80;55.60;;;;;;21248;6687;67540;-87
2021/12/01 07:03:41;;;;;;;0.60;0.60;;;7.90;55.40;;;;;;21244;6687;67525;-89
2021/12/01 07:06:07;;;;;;;1.40;1.40;;;7.80;55.50;;;;;;21250;6687;72990;-86
2021/12/01 07:08:35;;;;;;;0.80;0.80;;;7.80;55.80;;;;;;21033;6687;302386;-86
2021/12/01 07:10:58;;;;;;;0.40;0.40;;;8.00;55.00;;;;;;21254;6687;67195;-87
2021/12/01 07:13:23;;;;;;;0.30;0.30;;;8.00;54.90;;;;;;21079;6687;306812;-88
2021/12/01 07:15:49;;;;;;;0.50;0.50;;;8.20;54.10;;;;;;21028;6687;307080;-86
2021/12/01 07:18:15;;;;;;;1.17;0.40;;;8.60;53.30;;;;;;21264;6687;66950;-90
2021/12/01 07:20:44;;;;;;;0.73;0.73;;;8.60;53.30;;;;;;21248;6687;66585;-88
2021/12/01 07:23:07;;;;;;;0.40;0.40;;;8.50;53.20;;;;;;21016;6687;303568;-88
2021/12/01 07:25:32;;;;;;;0.40;0.40;;;8.50;53.10;;;;;;21040;6687;304457;-90
2021/12/01 07:27:58;;;;;;;0.50;0.50;;;8.80;52.50;;;;;;21077;6687;275382;-88
2021/12/01 07:30:23;;;;;;;0.50;0.50;;;9.00;51.90;;;;;;20995;6687;303125;-87
2021/12/01 07:32:49;;;;;;;0.40;0.40;;;9.30;51.30;;;;;;21209;6687;66538;-90
2021/12/01 07:35:15;;;;;;;0.80;0.50;;;9.10;51.10;;;;;;21012;6687;274194;-88
2021/12/01 07:37:41;;;;;;;0.50;0.50;;;9.10;51.10;;;;;;21233;6687;71482;-86
2021/12/01 07:40:06;;;;;;;0.40;0.40;;;9.00;51.40;;;;;;21023;6687;303122;-86
2021/12/01 07:42:33;;;;;;;0.70;0.70;;;9.30;51.00;;;;;;21018;6687;331418;-87
2021/12/01 07:44:58;;;;;;;0.73;0.50;;;9.20;50.90;;;;;;21259;6687;67123;-84
2021/12/01 07:47:24;;;;;;;0.30;0.30;;;9.10;51.20;;;;;;21263;6687;67597;-85
2021/12/01 07:49:50;;;;;;;1.48;0.50;;;8.90;51.80;;;;;;21286;6687;66992;-85
2021/12/01 07:52:15;;;;;;;0.80;0.37;;;8.70;52.30;;;;;;21273;6687;66665;-86
2021/12/01 07:54:41;;;;;;;1.07;0.47;;;8.50;52.80;;;;;;21061;6687;330726;-83
2021/12/01 07:57:07;;;;;;;0.93;0.57;;;8.60;52.40;;;;;;21290;6687;90694;-83
2021/12/01 07:59:34;;;;;;;0.40;0.40;;;8.60;52.40;;;;;;21079;6685;301534;-82
2021/12/01 08:02:00;;;;;;;0.40;0.40;;;8.70;52.20;;;;;;21257;6701;66694;-83
2021/12/01 08:04:25;;;;;;;0.70;0.30;;;8.70;52.40;;;;;;21036;6702;305833;-84
2021/12/01 08:06:51;;;;;;;0.40;0.40;;;8.80;52.00;;;;;;21204;6702;67225;-83
2021/12/01 08:09:16;;;;;;;0.30;0.30;;;8.80;52.10;;;;;;21228;6702;67332;-82
2021/12/01 08:11:42;;;;;;;0.57;0.30;;;8.70;53.30;;;;;;21022;6687;331686;-83
2021/12/01 08:14:09;;;;;;;0.20;0.20;;;8.90;52.10;;;;;;21065;6687;307971;-83
2021/12/01 08:16:34;;;;;;;0.30;0.30;;;9.20;51.30;;;;;;21079;6687;276272;-83
2021/12/01 08:19:00;;;;;;;1.93;1.83;;;9.50;50.40;;;;;;21283;6687;66894;-83
2021/12/01 08:21:25;;;;;;;0.33;0.33;;;9.50;50.70;;;;;;21268;6687;67004;-85
2021/12/01 08:23:51;;;;;;;0.30;0.30;;;9.30;51.40;;;;;;21195;6702;67603;-85
2021/12/01 08:26:17;;;;;;;0.30;0.30;;;9.20;52.00;;;;;;20930;6702;304507;-86
2021/12/01 08:28:45;;;;;;;0.50;0.30;;;9.40;51.40;;;;;;21014;6687;336261;-85
2021/12/01 08:31:08;;;;;;;0.30;0.30;;;9.90;50.50;;;;;;21188;6702;66727;-85
2021/12/01 08:33:34;;;;;;;2.37;2.17;;;10.10;49.30;;;;;;20979;6702;309751;-83
2021/12/01 08:35:59;;;;;;;0.30;0.30;;;10.20;48.20;;;;;;20997;6702;303241;-84
2021/12/01 08:38:25;;;;;;;0.20;0.20;;;10.50;47.90;;;;;;20991;6702;305959;-84
2021/12/01 08:40:50;;;;;;;0.50;0.10;;;10.70;47.00;;;;;;21254;6687;68454;-84
2021/12/01 08:43:16;;;;;;;0.50;0.10;;;10.60;47.40;;;;;;21266;6687;67023;-84
2021/12/01 08:45:45;;;;;;;0.30;0.30;;;10.30;48.00;;;;;;21265;6687;66701;-84
2021/12/01 08:48:11;;;;;;;0.32;0.32;;;10.10;48.70;;;;;;21029;6687;277725;-86
2021/12/01 08:50:37;;;;;;;0.30;0.20;;;10.10;48.50;;;;;;21255;6687;67162;-85
2021/12/01 08:53:02;;;;;;;0.20;0.20;;;10.10;48.50;;;;;;21226;6687;78974;-85
2021/12/01 08:55:28;;;;;;;0.30;0.20;;;10.00;49.00;;;;;;21227;6687;66983;-85
2021/12/01 08:57:53;;;;;;;0.55;0.25;;;9.90;50.60;;;;;;21236;6687;66976;-85
2021/12/01 09:00:19;;;;;;;0.40;0.30;;;9.80;50.90;;;;;;21239;6687;66559;-85
2021/12/01 09:02:44;;;;;;;0.20;0.20;;;9.70;51.10;;;;;;21012;6687;331884;-84
2021/12/01 09:05:10;;;;;;;0.50;0.10;;;9.90;50.10;;;;;;21260;6687;69299;-85
2021/12/01 09:07:36;;;;;;;0.22;0.22;;;10.00;49.20;;;;;;21261;6687;66636;-85
2021/12/01 09:10:01;;;;;;;0.52;0.25;;;9.90;50.60;;;;;;21041;6687;317426;-83
2021/12/01 09:12:27;;;;;;;0.20;0.20;;;10.00;48.80;;;;;;21071;6686;274998;-83
2021/12/01 09:14:55;;;;;;;0.20;0.20;;;10.30;48.20;;;;;;21081;6687;272735;-85
2021/12/01 09:17:18;;;;;;;0.17;0.17;;;10.60;47.80;;;;;;21248;6687;67129;-84
2021/12/01 09:19:44;;;;;;;0.30;0.30;;;10.60;48.30;;;;;;21038;6687;331118;-84
2021/12/01 09:22:09;;;;;;;0.60;0.20;;;10.60;48.10;;;;;;21035;6687;277820;-86
2021/12/01 09:24:35;;;;;;;0.50;0.30;;;10.90;47.80;;;;;;21025;6687;273194;-85
2021/12/01 09:27:00;;;;;;;0.17;0.17;;;11.10;47.50;;;;;;21017;6687;278503;-85
2021/12/01 09:29:27;;;;;;;0.20;0.20;;;11.30;47.30;;;;;;21017;6687;333101;-85
2021/12/01 09:31:52;;;;;;;0.10;0.10;;;11.50;47.30;;;;;;21013;6687;276421;-84
2021/12/01 09:34:20;;;;;;;0.30;0.30;;;11.60;46.90;;;;;;21019;6687;301758;-84
2021/12/01 09:36:43;;;;;;;0.20;0.20;;;11.80;46.70;;;;;;21215;6687;67075;-84
2021/12/01 09:39:08;;;;;;;0.20;0.20;;;11.60;47.20;;;;;;21007;6687;332323;-84
2021/12/01 09:41:34;;;;;;;0.20;0.20;;;11.70;47.20;;;;;;21236;6687;69808;-84
2021/12/01 09:43:59;;;;;;;1.70;0.20;;;11.60;47.60;;;;;;20999;6687;275606;-83
2021/12/01 09:46:26;;;;;;;0.20;0.20;;;11.60;46.60;;;;;;21004;6687;303337;-84
2021/12/01 09:48:50;;;;;;;0.60;0.20;;;11.80;46.50;;;;;;21001;6687;328047;-85
2021/12/01 09:51:16;;;;;;;0.30;0.30;;;12.00;46.90;;;;;;21013;6687;283821;-85
2021/12/01 09:53:41;;;;;;;0.28;0.28;;;12.10;46.60;;;;;;21018;6687;290849;-85
2021/12/01 09:56:07;;;;;;;0.30;0.30;;;12.20;46.40;;;;;;21237;6687;66992;-85
2021/12/01 09:58:33;;;;;;;0.50;0.20;;;12.00;46.90;;;;;;21019;6687;315286;-84
2021/12/01 10:00:58;;;;;;;1.30;0.30;;;11.90;47.00;;;;;;21248;6687;67233;-85
2021/12/01 10:03:24;;;;;;;0.30;0.30;;;11.80;47.50;;;;;;21018;6687;330579;-85
2021/12/01 10:08:28;;;;;;;0.20;0.20;;;11.70;48.00;;;;;;21241;6687;67495;-86
2021/12/01 10:10:54;;;;;;;0.30;0.30;;;11.50;48.50;;;;;;21014;6687;306698;-88
2021/12/01 10:13:22;;;;;;;0.10;0.10;;;11.60;48.20;;;;;;21232;6687;72196;-85
2021/12/01 10:15:48;;;;;;;0.50;0.30;;;11.60;48.40;;;;;;20933;6687;273052;-86
2021/12/01 10:18:14;;;;;;;1.50;0.20;;;11.70;48.00;;;;;;21243;6687;67127;-86
2021/12/01 10:20:39;;;;;;;2.30;0.30;;;11.70;48.40;;;;;;21048;6687;276801;-87
2021/12/01 10:23:07;;;;;;;0.30;0.30;;;11.80;48.30;;;;;;21091;6686;301324;-87
2021/12/01 10:25:33;;;;;;;0.20;0.20;;;12.10;48.00;;;;;;21273;6687;66626;-87
2021/12/01 10:27:59;;;;;;;0.30;0.30;;;12.10;47.90;;;;;;21068;6687;289369;-86
2021/12/01 10:30:40;;;;;;;0.20;0.20;;;12.10;47.10;;;;;;21020;6687;332972;-87
2021/12/01 10:33:09;;;;;;;0.50;0.40;;;12.30;46.60;;;;;;20968;6687;273418;-86
2021/12/01 10:35:35;;;;;;;0.20;0.20;;;12.50;46.20;;;;;;21201;6687;66951;-85
2021/12/01 10:38:00;;;;;;;0.30;0.30;;;12.30;46.70;;;;;;21232;6687;66976;-86
2021/12/01 10:40:27;;;;;;;1.37;0.40;;;12.00;47.10;;;;;;21030;6687;273537;-89
2021/12/01 10:42:52;;;;;;;0.60;0.30;;;12.00;47.00;;;;;;21021;6687;330977;-84
2021/12/01 10:45:18;;;;;;;0.20;0.20;;;12.10;46.60;;;;;;21011;6687;332353;-85
2021/12/01 10:47:43;;;;;;;0.93;0.23;;;12.30;46.50;;;;;;21233;6687;71337;-85
2021/12/01 10:50:09;;;;;;;0.20;0.20;;;12.20;46.80;;;;;;21013;6687;331837;-85
2021/12/01 10:52:34;;;;;;;0.20;0.20;;;12.10;46.50;;;;;;21201;6687;67142;-85
2021/12/01 10:55:17;;;;;;;0.35;0.30;;;11.90;47.10;;;;;;20969;6687;324662;-86
2021/12/01 10:57:48;;;;;;;1.83;0.30;;;11.90;47.40;;;;;;21001;6687;73798;-85
2021/12/01 11:00:17;;;;;;;0.37;0.30;;;11.80;47.80;;;;;;20879;6687;332048;-85
2021/12/01 11:02:43;;;;;;;0.30;0.30;;;11.80;47.70;;;;;;20967;6687;302699;-85
2021/12/01 11:05:09;;;;;;;0.30;0.30;;;12.00;47.50;;;;;;21005;6687;305896;-85
2021/12/01 11:07:35;;;;;;;0.40;0.40;;;12.00;47.50;;;;;;21238;6687;67532;-86
2021/12/01 11:10:18;;;;;;;0.77;0.40;;;12.00;47.60;;;;;;21013;6687;273926;-84
2021/12/01 11:12:42;;;;;;;0.30;0.30;;;12.00;47.60;;;;;;21239;6687;67051;-85
2021/12/01 11:15:18;;;;;;;0.20;0.20;;;11.70;48.70;;;;;;21229;6687;67236;-85
2021/12/01 11:17:44;;;;;;;0.20;0.20;;;11.60;49.80;;;;;;21214;6687;67061;-84
2021/12/01 11:20:09;;;;;;;0.40;0.40;;;11.50;49.30;;;;;;21051;6687;308012;-85
2021/12/01 11:22:36;;;;;;;0.30;0.30;;;11.70;49.70;;;;;;21239;6687;67072;-84
2021/12/01 11:25:21;;;;;;;0.30;0.30;;;11.80;49.80;;;;;;21246;6687;66551;-83
2021/12/01 11:27:46;;;;;;;0.30;0.30;;;11.80;49.90;;;;;;21268;6687;66940;-84
2021/12/01 11:30:12;;;;;;;0.40;0.40;;;11.80;50.20;;;;;;21279;6687;66583;-86
2021/12/01 11:32:37;;;;;;;0.30;0.30;;;11.70;50.30;;;;;;21293;6687;67446;-84
2021/12/01 11:35:03;;;;;;;2.30;0.50;;;11.70;50.50;;;;;;21068;6685;319116;-84
2021/12/01 11:37:29;;;;;;;0.30;0.30;;;11.90;49.60;;;;;;21033;6687;291820;-86
2021/12/01 11:39:56;;;;;;;0.30;0.30;;;12.30;49.10;;;;;;21075;6687;272870;-85
2021/12/01 11:42:20;;;;;;;0.70;0.40;;;12.60;47.90;;;;;;21029;6687;273630;-87
2021/12/01 11:44:45;;;;;;;0.35;0.35;;;13.00;47.60;;;;;;21037;6687;325225;-85
2021/12/01 11:47:11;;;;;;;0.32;0.32;;;13.20;46.90;;;;;;21035;6687;302890;-87
2021/12/01 11:49:37;;;;;;;0.63;0.30;;;13.40;46.30;;;;;;21246;6687;66937;-85
2021/12/01 11:52:04;;;;;;;0.55;0.50;;;13.20;46.80;;;;;;21245;6687;67344;-86
2021/12/01 11:54:28;;;;;;;0.30;0.30;;;12.90;47.80;;;;;;21235;6687;67871;-86
2021/12/01 11:57:00;;;;;;;0.60;0.30;;;12.70;48.60;;;;;;21081;6687;284883;-87
2021/12/01 11:59:26;;;;;;;0.63;0.20;;;12.70;48.70;;;;;;21234;6687;66296;-87
2021/12/01 12:02:05;;;;;;;0.75;0.40;;;12.50;48.70;;;;;;21022;6687;303524;-87
2021/12/01 12:04:36;;;;;;;1.83;0.50;;;12.60;48.90;;;;;;21171;6687;67218;-87
2021/12/01 12:07:02;;;;;;;0.20;0.20;;;12.50;49.20;;;;;;21220;6687;67153;-86
2021/12/01 12:09:28;;;;;;;0.80;0.40;;;12.30;49.90;;;;;;21015;6687;336600;-87
2021/12/01 12:11:59;;;;;;;0.57;0.47;;;12.40;50.20;;;;;;21233;6687;67103;-87
2021/12/01 12:14:25;;;;;;;0.40;0.40;;;12.40;50.10;;;;;;20979;6687;305739;-87
2021/12/01 12:17:14;;;;;;;0.33;0.30;;;12.70;50.20;;;;;;21023;6687;305535;-87
2021/12/01 12:19:43;;;;;;;0.30;0.30;;;12.60;50.00;;;;;;21007;6687;332375;-86
2021/12/01 12:22:08;;;;;;;0.40;0.40;;;12.90;49.90;;;;;;21250;6687;67024;-86
2021/12/01 12:24:34;;;;;;;1.10;0.40;;;12.70;49.70;;;;;;21036;6687;278939;-86
2021/12/01 12:27:02;;;;;;;0.30;0.30;;;12.70;49.90;;;;;;21245;6687;67318;-86
2021/12/01 12:29:26;;;;;;;0.40;0.30;;;12.50;50.10;;;;;;21052;6687;273419;-88
2021/12/01 12:31:51;;;;;;;1.25;0.30;;;12.40;50.40;;;;;;21296;6687;66609;-86
2021/12/01 12:34:23;;;;;;;0.20;0.20;;;12.40;50.40;;;;;;21264;6687;72015;-85
2021/12/01 12:36:48;;;;;;;0.70;0.30;;;12.20;50.80;;;;;;21049;6687;330966;-84
2021/12/01 12:39:14;;;;;;;0.63;0.40;;;12.20;50.80;;;;;;21268;6687;66591;-84
2021/12/01 12:42:08;;;;;;;0.80;0.40;;;12.20;50.90;;;;;;21073;6687;272415;-84
2021/12/01 12:44:42;;;;;;;0.90;0.30;;;12.20;50.80;;;;;;21074;6687;274792;-84
2021/12/01 12:47:12;;;;;;;0.37;0.30;;;12.50;50.60;;;;;;21037;6686;274478;-84
2021/12/01 12:49:43;;;;;;;0.30;0.30;;;12.60;50.60;;;;;;21256;6687;67858;-84